sensor_id;sensor_type;location;lat;lon;timestamp;P1;durP1;ratioP1;P2;durP2;ratioP2
20611;SDS011;10465;42.686;23.364;2022-08-25T00:01:37;19.92;;;8.43;;
20611;SDS011;10465;42.686;23.364;2022-08-25T00:04:06;20.77;;;9.88;;
20611;SDS011;10465;42.686;23.364;2022-08-25T00:06:35;17.50;;;8.98;;
20611;SDS011;10465;42.686;23.364;2022-08-25T00:09:01;17.38;;;8.85;;
20611;SDS011;10465;42.686;23.364;2022-08-25T00:11:28;22.00;;;9.50;;
20611;SDS011;10465;42.686;23.364;2022-08-25T00:13:57;20.08;;;10.00;;
20611;SDS011;10465;42.686;23.364;2022-08-25T00:16:25;18.13;;;8.90;;
20611;SDS011;10465;42.686;23.364;2022-08-25T00:18:53;18.40;;;9.65;;
20611;SDS011;10465;42.686;23.364;2022-08-25T00:21:21;19.00;;;9.35;;
20611;SDS011;10465;42.686;23.364;2022-08-25T00:23:47;20.10;;;9.10;;
20611;SDS011;10465;42.686;23.364;2022-08-25T00:26:12;23.58;;;9.90;;
20611;SDS011;10465;42.686;23.364;2022-08-25T00:28:39;18.98;;;9.50;;
20611;SDS011;10465;42.686;23.364;2022-08-25T00:31:06;19.38;;;8.57;;
20611;SDS011;10465;42.686;23.364;2022-08-25T00:33:36;15.27;;;9.05;;
20611;SDS011;10465;42.686;23.364;2022-08-25T00:36:02;16.15;;;9.20;;
20611;SDS011;10465;42.686;23.364;2022-08-25T00:38:28;23.00;;;9.23;;
20611;SDS011;10465;42.686;23.364;2022-08-25T00:40:55;23.38;;;8.95;;
20611;SDS011;10465;42.686;23.364;2022-08-25T00:46:16;16.65;;;8.85;;
20611;SDS011;10465;42.686;23.364;2022-08-25T00:48:45;18.95;;;9.35;;
20611;SDS011;10465;42.686;23.364;2022-08-25T00:51:16;23.02;;;9.55;;
20611;SDS011;10465;42.686;23.364;2022-08-25T00:53:45;13.93;;;8.35;;
20611;SDS011;10465;42.686;23.364;2022-08-25T00:56:12;20.30;;;9.57;;
20611;SDS011;10465;42.686;23.364;2022-08-25T00:58:38;21.98;;;9.48;;
20611;SDS011;10465;42.686;23.364;2022-08-25T01:01:04;15.95;;;9.45;;
20611;SDS011;10465;42.686;23.364;2022-08-25T01:03:30;19.80;;;8.93;;
20611;SDS011;10465;42.686;23.364;2022-08-25T01:05:58;21.25;;;8.75;;
20611;SDS011;10465;42.686;23.364;2022-08-25T01:08:26;20.55;;;8.95;;
20611;SDS011;10465;42.686;23.364;2022-08-25T01:10:53;21.17;;;8.93;;
20611;SDS011;10465;42.686;23.364;2022-08-25T01:16:09;20.58;;;8.68;;
20611;SDS011;10465;42.686;23.364;2022-08-25T01:18:46;20.40;;;8.52;;
20611;SDS011;10465;42.686;23.364;2022-08-25T01:21:15;21.80;;;8.27;;
20611;SDS011;10465;42.686;23.364;2022-08-25T01:23:42;16.65;;;8.55;;
20611;SDS011;10465;42.686;23.364;2022-08-25T01:26:13;17.45;;;8.85;;
20611;SDS011;10465;42.686;23.364;2022-08-25T01:28:42;19.73;;;9.73;;
20611;SDS011;10465;42.686;23.364;2022-08-25T01:31:28;17.63;;;9.88;;
20611;SDS011;10465;42.686;23.364;2022-08-25T01:33:54;20.20;;;9.82;;
20611;SDS011;10465;42.686;23.364;2022-08-25T01:36:21;18.33;;;10.23;;
20611;SDS011;10465;42.686;23.364;2022-08-25T01:38:47;20.65;;;9.68;;
20611;SDS011;10465;42.686;23.364;2022-08-25T01:41:15;25.52;;;10.35;;
20611;SDS011;10465;42.686;23.364;2022-08-25T01:43:45;25.13;;;9.80;;
20611;SDS011;10465;42.686;23.364;2022-08-25T01:46:11;16.73;;;9.10;;
20611;SDS011;10465;42.686;23.364;2022-08-25T01:48:36;24.30;;;9.88;;
20611;SDS011;10465;42.686;23.364;2022-08-25T01:51:02;18.92;;;9.90;;
20611;SDS011;10465;42.686;23.364;2022-08-25T01:53:29;18.63;;;9.90;;
20611;SDS011;10465;42.686;23.364;2022-08-25T01:55:55;19.73;;;9.88;;
20611;SDS011;10465;42.686;23.364;2022-08-25T01:58:34;22.55;;;10.20;;
20611;SDS011;10465;42.686;23.364;2022-08-25T02:01:01;15.52;;;9.63;;
20611;SDS011;10465;42.686;23.364;2022-08-25T02:03:29;25.23;;;9.95;;
20611;SDS011;10465;42.686;23.364;2022-08-25T02:05:55;20.40;;;9.45;;
20611;SDS011;10465;42.686;23.364;2022-08-25T02:08:22;21.45;;;9.85;;
20611;SDS011;10465;42.686;23.364;2022-08-25T02:10:48;22.15;;;9.45;;
20611;SDS011;10465;42.686;23.364;2022-08-25T02:13:15;18.90;;;9.23;;
20611;SDS011;10465;42.686;23.364;2022-08-25T02:15:41;20.77;;;9.43;;
20611;SDS011;10465;42.686;23.364;2022-08-25T02:18:08;19.23;;;8.60;;
20611;SDS011;10465;42.686;23.364;2022-08-25T02:20:35;19.50;;;8.20;;
20611;SDS011;10465;42.686;23.364;2022-08-25T02:23:01;14.90;;;8.65;;
20611;SDS011;10465;42.686;23.364;2022-08-25T02:25:26;15.98;;;8.73;;
20611;SDS011;10465;42.686;23.364;2022-08-25T02:27:52;17.63;;;8.60;;
20611;SDS011;10465;42.686;23.364;2022-08-25T02:30:18;22.40;;;8.05;;
20611;SDS011;10465;42.686;23.364;2022-08-25T02:32:44;14.35;;;8.45;;
20611;SDS011;10465;42.686;23.364;2022-08-25T02:35:09;20.85;;;8.60;;
20611;SDS011;10465;42.686;23.364;2022-08-25T02:37:35;13.88;;;7.70;;
20611;SDS011;10465;42.686;23.364;2022-08-25T02:40:01;20.50;;;8.20;;
20611;SDS011;10465;42.686;23.364;2022-08-25T02:42:28;20.40;;;8.18;;
20611;SDS011;10465;42.686;23.364;2022-08-25T02:44:54;18.58;;;8.18;;
20611;SDS011;10465;42.686;23.364;2022-08-25T02:47:19;17.45;;;8.50;;
20611;SDS011;10465;42.686;23.364;2022-08-25T02:49:46;22.83;;;8.80;;
20611;SDS011;10465;42.686;23.364;2022-08-25T02:52:12;20.05;;;8.57;;
20611;SDS011;10465;42.686;23.364;2022-08-25T02:54:38;14.48;;;7.55;;
20611;SDS011;10465;42.686;23.364;2022-08-25T02:57:03;15.32;;;8.68;;
20611;SDS011;10465;42.686;23.364;2022-08-25T02:59:29;17.02;;;7.80;;
20611;SDS011;10465;42.686;23.364;2022-08-25T03:01:54;15.38;;;8.32;;
20611;SDS011;10465;42.686;23.364;2022-08-25T03:04:20;21.42;;;8.55;;
20611;SDS011;10465;42.686;23.364;2022-08-25T03:06:46;18.55;;;8.55;;
20611;SDS011;10465;42.686;23.364;2022-08-25T03:09:11;18.48;;;8.23;;
20611;SDS011;10465;42.686;23.364;2022-08-25T03:11:37;13.50;;;8.75;;
20611;SDS011;10465;42.686;23.364;2022-08-25T03:14:04;23.25;;;8.68;;
20611;SDS011;10465;42.686;23.364;2022-08-25T03:16:30;18.02;;;9.13;;
20611;SDS011;10465;42.686;23.364;2022-08-25T03:18:56;15.82;;;8.45;;
20611;SDS011;10465;42.686;23.364;2022-08-25T03:21:22;15.05;;;7.82;;
20611;SDS011;10465;42.686;23.364;2022-08-25T03:23:48;20.27;;;8.13;;
20611;SDS011;10465;42.686;23.364;2022-08-25T03:26:14;17.50;;;8.15;;
20611;SDS011;10465;42.686;23.364;2022-08-25T03:28:59;17.80;;;7.85;;
20611;SDS011;10465;42.686;23.364;2022-08-25T03:31:28;19.15;;;7.82;;
20611;SDS011;10465;42.686;23.364;2022-08-25T03:33:56;17.25;;;7.82;;
20611;SDS011;10465;42.686;23.364;2022-08-25T03:36:22;14.80;;;8.15;;
20611;SDS011;10465;42.686;23.364;2022-08-25T03:38:49;15.93;;;8.00;;
20611;SDS011;10465;42.686;23.364;2022-08-25T03:41:16;12.73;;;8.18;;
20611;SDS011;10465;42.686;23.364;2022-08-25T03:43:45;13.27;;;7.43;;
20611;SDS011;10465;42.686;23.364;2022-08-25T03:46:19;15.07;;;8.05;;
20611;SDS011;10465;42.686;23.364;2022-08-25T03:48:48;26.10;;;9.38;;
20611;SDS011;10465;42.686;23.364;2022-08-25T03:51:19;16.38;;;7.85;;
20611;SDS011;10465;42.686;23.364;2022-08-25T03:53:48;18.50;;;8.73;;
20611;SDS011;10465;42.686;23.364;2022-08-25T03:56:14;12.98;;;7.70;;
20611;SDS011;10465;42.686;23.364;2022-08-25T03:58:42;16.73;;;8.98;;
20611;SDS011;10465;42.686;23.364;2022-08-25T04:01:12;14.32;;;8.18;;
20611;SDS011;10465;42.686;23.364;2022-08-25T04:03:53;16.75;;;8.00;;
20611;SDS011;10465;42.686;23.364;2022-08-25T04:06:21;17.00;;;8.32;;
20611;SDS011;10465;42.686;23.364;2022-08-25T04:08:53;14.65;;;8.45;;
20611;SDS011;10465;42.686;23.364;2022-08-25T04:11:22;18.67;;;8.23;;
20611;SDS011;10465;42.686;23.364;2022-08-25T04:13:48;19.25;;;8.60;;
20611;SDS011;10465;42.686;23.364;2022-08-25T04:16:19;18.80;;;8.35;;
20611;SDS011;10465;42.686;23.364;2022-08-25T04:18:47;17.20;;;8.77;;
20611;SDS011;10465;42.686;23.364;2022-08-25T04:21:18;17.35;;;8.13;;
20611;SDS011;10465;42.686;23.364;2022-08-25T04:23:45;19.63;;;9.07;;
20611;SDS011;10465;42.686;23.364;2022-08-25T04:26:15;16.65;;;8.98;;
20611;SDS011;10465;42.686;23.364;2022-08-25T04:28:43;14.65;;;8.98;;
20611;SDS011;10465;42.686;23.364;2022-08-25T04:31:10;20.95;;;9.02;;
20611;SDS011;10465;42.686;23.364;2022-08-25T04:33:38;19.55;;;10.05;;
20611;SDS011;10465;42.686;23.364;2022-08-25T04:36:05;22.88;;;10.43;;
20611;SDS011;10465;42.686;23.364;2022-08-25T04:38:32;21.60;;;10.60;;
20611;SDS011;10465;42.686;23.364;2022-08-25T04:40:58;19.55;;;11.25;;
20611;SDS011;10465;42.686;23.364;2022-08-25T04:43:25;20.30;;;10.55;;
20611;SDS011;10465;42.686;23.364;2022-08-25T04:45:51;17.55;;;10.63;;
20611;SDS011;10465;42.686;23.364;2022-08-25T04:48:18;20.17;;;11.32;;
20611;SDS011;10465;42.686;23.364;2022-08-25T04:50:44;20.08;;;10.00;;
20611;SDS011;10465;42.686;23.364;2022-08-25T04:53:10;19.33;;;10.32;;
20611;SDS011;10465;42.686;23.364;2022-08-25T04:55:39;21.58;;;10.40;;
20611;SDS011;10465;42.686;23.364;2022-08-25T04:58:06;22.40;;;10.95;;
20611;SDS011;10465;42.686;23.364;2022-08-25T05:00:32;17.48;;;9.20;;
20611;SDS011;10465;42.686;23.364;2022-08-25T05:02:59;15.90;;;9.30;;
20611;SDS011;10465;42.686;23.364;2022-08-25T05:05:25;18.40;;;8.98;;
20611;SDS011;10465;42.686;23.364;2022-08-25T05:07:51;17.33;;;9.18;;
20611;SDS011;10465;42.686;23.364;2022-08-25T05:10:16;16.50;;;8.98;;
20611;SDS011;10465;42.686;23.364;2022-08-25T05:12:44;20.40;;;9.35;;
20611;SDS011;10465;42.686;23.364;2022-08-25T05:15:09;17.30;;;8.85;;
20611;SDS011;10465;42.686;23.364;2022-08-25T05:17:54;15.57;;;8.38;;
20611;SDS011;10465;42.686;23.364;2022-08-25T05:20:20;16.52;;;10.30;;
20611;SDS011;10465;42.686;23.364;2022-08-25T05:22:46;19.40;;;10.45;;
20611;SDS011;10465;42.686;23.364;2022-08-25T05:25:12;18.33;;;9.77;;
20611;SDS011;10465;42.686;23.364;2022-08-25T05:27:39;17.67;;;8.98;;
20611;SDS011;10465;42.686;23.364;2022-08-25T05:30:05;17.63;;;10.73;;
20611;SDS011;10465;42.686;23.364;2022-08-25T05:32:31;17.40;;;9.38;;
20611;SDS011;10465;42.686;23.364;2022-08-25T05:34:56;12.57;;;9.23;;
20611;SDS011;10465;42.686;23.364;2022-08-25T05:37:22;18.17;;;9.82;;
20611;SDS011;10465;42.686;23.364;2022-08-25T05:39:47;18.73;;;9.48;;
20611;SDS011;10465;42.686;23.364;2022-08-25T05:42:13;18.10;;;9.63;;
20611;SDS011;10465;42.686;23.364;2022-08-25T05:44:38;20.75;;;9.73;;
20611;SDS011;10465;42.686;23.364;2022-08-25T05:47:04;21.83;;;10.02;;
20611;SDS011;10465;42.686;23.364;2022-08-25T05:49:29;16.00;;;8.80;;
20611;SDS011;10465;42.686;23.364;2022-08-25T05:51:55;19.70;;;9.95;;
20611;SDS011;10465;42.686;23.364;2022-08-25T05:54:20;23.60;;;11.30;;
20611;SDS011;10465;42.686;23.364;2022-08-25T05:56:46;19.55;;;9.32;;
20611;SDS011;10465;42.686;23.364;2022-08-25T05:59:11;19.52;;;9.50;;
20611;SDS011;10465;42.686;23.364;2022-08-25T06:01:37;18.75;;;9.25;;
20611;SDS011;10465;42.686;23.364;2022-08-25T06:04:21;15.23;;;9.52;;
20611;SDS011;10465;42.686;23.364;2022-08-25T06:06:46;19.85;;;9.23;;
20611;SDS011;10465;42.686;23.364;2022-08-25T06:09:13;19.95;;;10.13;;
20611;SDS011;10465;42.686;23.364;2022-08-25T06:11:39;17.77;;;9.52;;
20611;SDS011;10465;42.686;23.364;2022-08-25T06:14:05;15.02;;;9.05;;
20611;SDS011;10465;42.686;23.364;2022-08-25T06:16:34;17.00;;;9.30;;
20611;SDS011;10465;42.686;23.364;2022-08-25T06:18:59;23.80;;;9.70;;
20611;SDS011;10465;42.686;23.364;2022-08-25T06:21:25;20.17;;;10.10;;
20611;SDS011;10465;42.686;23.364;2022-08-25T06:23:50;17.73;;;8.85;;
20611;SDS011;10465;42.686;23.364;2022-08-25T06:26:16;20.10;;;9.73;;
20611;SDS011;10465;42.686;23.364;2022-08-25T06:28:42;23.35;;;9.35;;
20611;SDS011;10465;42.686;23.364;2022-08-25T06:31:07;19.40;;;10.15;;
20611;SDS011;10465;42.686;23.364;2022-08-25T06:33:33;18.63;;;9.25;;
20611;SDS011;10465;42.686;23.364;2022-08-25T06:35:59;12.70;;;8.75;;
20611;SDS011;10465;42.686;23.364;2022-08-25T06:38:24;16.77;;;9.68;;
20611;SDS011;10465;42.686;23.364;2022-08-25T06:40:50;19.05;;;11.00;;
20611;SDS011;10465;42.686;23.364;2022-08-25T06:43:17;21.17;;;9.20;;
20611;SDS011;10465;42.686;23.364;2022-08-25T06:45:45;20.85;;;9.07;;
20611;SDS011;10465;42.686;23.364;2022-08-25T06:48:11;17.00;;;9.80;;
20611;SDS011;10465;42.686;23.364;2022-08-25T06:50:37;22.58;;;10.15;;
20611;SDS011;10465;42.686;23.364;2022-08-25T06:53:03;15.45;;;9.30;;
20611;SDS011;10465;42.686;23.364;2022-08-25T06:55:30;18.17;;;9.73;;
20611;SDS011;10465;42.686;23.364;2022-08-25T06:57:56;20.27;;;9.68;;
20611;SDS011;10465;42.686;23.364;2022-08-25T07:00:21;14.98;;;9.35;;
20611;SDS011;10465;42.686;23.364;2022-08-25T07:02:50;24.38;;;10.50;;
20611;SDS011;10465;42.686;23.364;2022-08-25T07:05:15;19.05;;;9.82;;
20611;SDS011;10465;42.686;23.364;2022-08-25T07:07:41;18.27;;;9.48;;
20611;SDS011;10465;42.686;23.364;2022-08-25T07:10:10;21.50;;;10.07;;
20611;SDS011;10465;42.686;23.364;2022-08-25T07:12:36;24.48;;;10.25;;
20611;SDS011;10465;42.686;23.364;2022-08-25T07:15:02;18.70;;;9.25;;
20611;SDS011;10465;42.686;23.364;2022-08-25T07:17:29;13.68;;;9.85;;
20611;SDS011;10465;42.686;23.364;2022-08-25T07:19:54;19.08;;;9.55;;
20611;SDS011;10465;42.686;23.364;2022-08-25T07:22:20;16.42;;;9.02;;
20611;SDS011;10465;42.686;23.364;2022-08-25T07:24:45;18.38;;;10.05;;
20611;SDS011;10465;42.686;23.364;2022-08-25T07:27:11;21.67;;;9.30;;
20611;SDS011;10465;42.686;23.364;2022-08-25T07:29:36;24.92;;;9.40;;
20611;SDS011;10465;42.686;23.364;2022-08-25T07:32:03;13.63;;;8.55;;
20611;SDS011;10465;42.686;23.364;2022-08-25T07:34:29;17.35;;;8.40;;
20611;SDS011;10465;42.686;23.364;2022-08-25T07:37:15;17.63;;;9.00;;
20611;SDS011;10465;42.686;23.364;2022-08-25T07:39:41;14.02;;;9.27;;
20611;SDS011;10465;42.686;23.364;2022-08-25T07:42:06;15.73;;;8.65;;
20611;SDS011;10465;42.686;23.364;2022-08-25T07:44:33;18.52;;;9.18;;
20611;SDS011;10465;42.686;23.364;2022-08-25T07:46:58;20.08;;;9.48;;
20611;SDS011;10465;42.686;23.364;2022-08-25T07:49:24;22.80;;;9.38;;
20611;SDS011;10465;42.686;23.364;2022-08-25T07:51:51;20.63;;;9.07;;
20611;SDS011;10465;42.686;23.364;2022-08-25T07:54:18;14.73;;;9.45;;
20611;SDS011;10465;42.686;23.364;2022-08-25T07:56:43;22.83;;;9.55;;
20611;SDS011;10465;42.686;23.364;2022-08-25T07:59:09;22.95;;;9.45;;
20611;SDS011;10465;42.686;23.364;2022-08-25T08:01:35;19.80;;;8.82;;
20611;SDS011;10465;42.686;23.364;2022-08-25T08:04:01;12.38;;;8.68;;
20611;SDS011;10465;42.686;23.364;2022-08-25T08:06:27;18.05;;;8.75;;
20611;SDS011;10465;42.686;23.364;2022-08-25T08:08:52;20.45;;;9.98;;
20611;SDS011;10465;42.686;23.364;2022-08-25T08:11:26;19.05;;;8.43;;
20611;SDS011;10465;42.686;23.364;2022-08-25T08:13:55;19.35;;;9.20;;
20611;SDS011;10465;42.686;23.364;2022-08-25T08:16:23;15.88;;;8.50;;
20611;SDS011;10465;42.686;23.364;2022-08-25T08:18:50;21.95;;;8.88;;
20611;SDS011;10465;42.686;23.364;2022-08-25T08:21:17;16.52;;;7.57;;
20611;SDS011;10465;42.686;23.364;2022-08-25T08:23:55;18.83;;;7.70;;
20611;SDS011;10465;42.686;23.364;2022-08-25T08:26:21;17.05;;;6.95;;
20611;SDS011;10465;42.686;23.364;2022-08-25T08:28:48;24.25;;;7.53;;
20611;SDS011;10465;42.686;23.364;2022-08-25T08:31:15;19.83;;;7.25;;
20611;SDS011;10465;42.686;23.364;2022-08-25T08:33:43;22.83;;;7.80;;
20611;SDS011;10465;42.686;23.364;2022-08-25T08:36:10;16.48;;;7.35;;
20611;SDS011;10465;42.686;23.364;2022-08-25T08:38:37;19.15;;;6.60;;
20611;SDS011;10465;42.686;23.364;2022-08-25T08:43:53;22.40;;;7.63;;
20611;SDS011;10465;42.686;23.364;2022-08-25T08:46:25;24.05;;;7.20;;
20611;SDS011;10465;42.686;23.364;2022-08-25T08:49:00;22.27;;;6.90;;
20611;SDS011;10465;42.686;23.364;2022-08-25T08:51:35;23.42;;;7.63;;
20611;SDS011;10465;42.686;23.364;2022-08-25T08:57:27;21.27;;;6.40;;
20611;SDS011;10465;42.686;23.364;2022-08-25T08:59:51;20.05;;;6.00;;
20611;SDS011;10465;42.686;23.364;2022-08-25T09:02:38;27.45;;;7.43;;
20611;SDS011;10465;42.686;23.364;2022-08-25T09:05:11;19.17;;;5.88;;
20611;SDS011;10465;42.686;23.364;2022-08-25T09:07:40;21.27;;;5.60;;
20611;SDS011;10465;42.686;23.364;2022-08-25T09:10:12;24.88;;;6.47;;
20611;SDS011;10465;42.686;23.364;2022-08-25T09:15:09;27.00;;;6.93;;
20611;SDS011;10465;42.686;23.364;2022-08-25T09:23:01;20.25;;;6.15;;
20611;SDS011;10465;42.686;23.364;2022-08-25T09:28:21;17.70;;;5.22;;
20611;SDS011;10465;42.686;23.364;2022-08-25T09:31:01;20.88;;;5.22;;
20611;SDS011;10465;42.686;23.364;2022-08-25T09:33:38;17.10;;;5.38;;
20611;SDS011;10465;42.686;23.364;2022-08-25T09:36:04;17.25;;;6.10;;
20611;SDS011;10465;42.686;23.364;2022-08-25T09:38:29;21.90;;;5.85;;
20611;SDS011;10465;42.686;23.364;2022-08-25T09:40:56;17.13;;;4.97;;
20611;SDS011;10465;42.686;23.364;2022-08-25T09:48:30;21.75;;;5.13;;
20611;SDS011;10465;42.686;23.364;2022-08-25T09:53:49;19.17;;;4.80;;
20611;SDS011;10465;42.686;23.364;2022-08-25T09:56:20;21.75;;;5.15;;
20611;SDS011;10465;42.686;23.364;2022-08-25T09:58:47;19.67;;;4.85;;
20611;SDS011;10465;42.686;23.364;2022-08-25T10:01:15;19.95;;;6.28;;
20611;SDS011;10465;42.686;23.364;2022-08-25T10:06:21;22.75;;;5.10;;
20611;SDS011;10465;42.686;23.364;2022-08-25T10:11:14;19.90;;;5.20;;
20611;SDS011;10465;42.686;23.364;2022-08-25T10:14:05;16.40;;;4.40;;
20611;SDS011;10465;42.686;23.364;2022-08-25T10:16:40;14.07;;;4.75;;
20611;SDS011;10465;42.686;23.364;2022-08-25T10:19:07;18.90;;;4.82;;
20611;SDS011;10465;42.686;23.364;2022-08-25T10:21:39;17.83;;;6.00;;
20611;SDS011;10465;42.686;23.364;2022-08-25T10:24:06;20.40;;;4.82;;
20611;SDS011;10465;42.686;23.364;2022-08-25T10:29:29;14.57;;;4.22;;
20611;SDS011;10465;42.686;23.364;2022-08-25T10:31:56;18.30;;;4.50;;
20611;SDS011;10465;42.686;23.364;2022-08-25T10:34:48;17.52;;;3.90;;
20611;SDS011;10465;42.686;23.364;2022-08-25T10:43:05;18.95;;;4.20;;
20611;SDS011;10465;42.686;23.364;2022-08-25T10:45:37;20.23;;;4.80;;
20611;SDS011;10465;42.686;23.364;2022-08-25T10:57:08;16.67;;;4.00;;
20611;SDS011;10465;42.686;23.364;2022-08-25T10:59:54;15.43;;;3.75;;
20611;SDS011;10465;42.686;23.364;2022-08-25T11:05:26;16.73;;;4.13;;
20611;SDS011;10465;42.686;23.364;2022-08-25T11:07:53;11.75;;;3.65;;
20611;SDS011;10465;42.686;23.364;2022-08-25T11:10:33;21.95;;;4.85;;
20611;SDS011;10465;42.686;23.364;2022-08-25T11:13:09;17.98;;;4.50;;
20611;SDS011;10465;42.686;23.364;2022-08-25T11:16:02;16.33;;;4.18;;
20611;SDS011;10465;42.686;23.364;2022-08-25T11:18:31;9.73;;;3.80;;
20611;SDS011;10465;42.686;23.364;2022-08-25T11:23:43;15.38;;;4.45;;
20611;SDS011;10465;42.686;23.364;2022-08-25T11:26:14;18.00;;;4.07;;
20611;SDS011;10465;42.686;23.364;2022-08-25T11:28:57;17.65;;;4.05;;
20611;SDS011;10465;42.686;23.364;2022-08-25T11:31:29;19.23;;;4.85;;
20611;SDS011;10465;42.686;23.364;2022-08-25T11:33:55;17.73;;;4.47;;
20611;SDS011;10465;42.686;23.364;2022-08-25T11:39:14;14.13;;;4.43;;
20611;SDS011;10465;42.686;23.364;2022-08-25T11:53:28;13.05;;;4.03;;
20611;SDS011;10465;42.686;23.364;2022-08-25T11:55:58;14.25;;;4.10;;
20611;SDS011;10465;42.686;23.364;2022-08-25T11:58:32;11.43;;;4.10;;
20611;SDS011;10465;42.686;23.364;2022-08-25T12:04:46;20.67;;;4.43;;
20611;SDS011;10465;42.686;23.364;2022-08-25T12:09:33;14.65;;;4.25;;
20611;SDS011;10465;42.686;23.364;2022-08-25T12:18:19;10.80;;;3.65;;
20611;SDS011;10465;42.686;23.364;2022-08-25T12:23:37;13.18;;;4.00;;
20611;SDS011;10465;42.686;23.364;2022-08-25T12:26:27;12.32;;;4.03;;
20611;SDS011;10465;42.686;23.364;2022-08-25T12:29:04;18.15;;;3.75;;
20611;SDS011;10465;42.686;23.364;2022-08-25T12:37:26;9.10;;;3.40;;
20611;SDS011;10465;42.686;23.364;2022-08-25T12:39:57;12.93;;;3.65;;
20611;SDS011;10465;42.686;23.364;2022-08-25T12:47:34;13.02;;;3.90;;
20611;SDS011;10465;42.686;23.364;2022-08-25T12:53:01;8.07;;;3.63;;
20611;SDS011;10465;42.686;23.364;2022-08-25T12:55:34;10.93;;;3.47;;
20611;SDS011;10465;42.686;23.364;2022-08-25T12:58:03;15.40;;;4.20;;
20611;SDS011;10465;42.686;23.364;2022-08-25T13:00:46;11.90;;;3.63;;
20611;SDS011;10465;42.686;23.364;2022-08-25T13:03:24;16.73;;;4.20;;
20611;SDS011;10465;42.686;23.364;2022-08-25T13:11:29;14.00;;;3.58;;
20611;SDS011;10465;42.686;23.364;2022-08-25T13:14:16;19.30;;;3.70;;
20611;SDS011;10465;42.686;23.364;2022-08-25T13:16:52;10.90;;;3.80;;
20611;SDS011;10465;42.686;23.364;2022-08-25T13:19:22;19.42;;;4.35;;
20611;SDS011;10465;42.686;23.364;2022-08-25T13:21:49;12.25;;;3.63;;
20611;SDS011;10465;42.686;23.364;2022-08-25T13:24:21;16.92;;;4.63;;
20611;SDS011;10465;42.686;23.364;2022-08-25T13:26:54;12.40;;;4.18;;
20611;SDS011;10465;42.686;23.364;2022-08-25T13:29:24;16.55;;;4.13;;
20611;SDS011;10465;42.686;23.364;2022-08-25T13:31:56;15.20;;;4.53;;
20611;SDS011;10465;42.686;23.364;2022-08-25T13:34:30;19.45;;;4.28;;
20611;SDS011;10465;42.686;23.364;2022-08-25T13:37:04;15.77;;;3.88;;
20611;SDS011;10465;42.686;23.364;2022-08-25T13:42:36;12.35;;;4.07;;
20611;SDS011;10465;42.686;23.364;2022-08-25T13:45:05;12.13;;;3.65;;
20611;SDS011;10465;42.686;23.364;2022-08-25T13:47:36;16.90;;;3.95;;
20611;SDS011;10465;42.686;23.364;2022-08-25T13:50:17;10.30;;;3.33;;
20611;SDS011;10465;42.686;23.364;2022-08-25T13:52:46;15.48;;;4.05;;
20611;SDS011;10465;42.686;23.364;2022-08-25T13:55:48;15.93;;;3.88;;
20611;SDS011;10465;42.686;23.364;2022-08-25T13:58:20;9.82;;;3.70;;
20611;SDS011;10465;42.686;23.364;2022-08-25T14:00:50;15.32;;;3.72;;
20611;SDS011;10465;42.686;23.364;2022-08-25T14:03:41;13.45;;;3.40;;
20611;SDS011;10465;42.686;23.364;2022-08-25T14:06:09;17.50;;;3.80;;
20611;SDS011;10465;42.686;23.364;2022-08-25T14:14:12;20.80;;;4.22;;
20611;SDS011;10465;42.686;23.364;2022-08-25T14:16:59;13.43;;;3.60;;
20611;SDS011;10465;42.686;23.364;2022-08-25T14:19:28;14.95;;;3.80;;
20611;SDS011;10465;42.686;23.364;2022-08-25T14:21:54;13.00;;;3.47;;
20611;SDS011;10465;42.686;23.364;2022-08-25T14:24:26;14.52;;;3.90;;
20611;SDS011;10465;42.686;23.364;2022-08-25T14:26:55;20.10;;;4.07;;
20611;SDS011;10465;42.686;23.364;2022-08-25T14:29:20;13.77;;;4.13;;
20611;SDS011;10465;42.686;23.364;2022-08-25T14:31:46;19.42;;;3.95;;
20611;SDS011;10465;42.686;23.364;2022-08-25T14:34:20;16.35;;;3.53;;
20611;SDS011;10465;42.686;23.364;2022-08-25T14:36:49;17.67;;;4.10;;
20611;SDS011;10465;42.686;23.364;2022-08-25T14:39:15;15.52;;;4.07;;
20611;SDS011;10465;42.686;23.364;2022-08-25T14:41:42;12.27;;;4.10;;
20611;SDS011;10465;42.686;23.364;2022-08-25T14:44:10;15.98;;;6.05;;
20611;SDS011;10465;42.686;23.364;2022-08-25T14:46:37;15.57;;;3.88;;
20611;SDS011;10465;42.686;23.364;2022-08-25T14:49:07;13.88;;;4.03;;
20611;SDS011;10465;42.686;23.364;2022-08-25T14:51:36;15.18;;;4.20;;
20611;SDS011;10465;42.686;23.364;2022-08-25T14:54:04;13.88;;;3.88;;
20611;SDS011;10465;42.686;23.364;2022-08-25T14:56:33;11.60;;;4.15;;
20611;SDS011;10465;42.686;23.364;2022-08-25T14:58:59;10.98;;;4.10;;
20611;SDS011;10465;42.686;23.364;2022-08-25T15:01:25;13.32;;;4.10;;
20611;SDS011;10465;42.686;23.364;2022-08-25T15:03:53;13.43;;;3.90;;
20611;SDS011;10465;42.686;23.364;2022-08-25T15:06:22;16.13;;;4.63;;
20611;SDS011;10465;42.686;23.364;2022-08-25T15:08:47;20.02;;;3.42;;
20611;SDS011;10465;42.686;23.364;2022-08-25T15:11:31;14.05;;;3.15;;
20611;SDS011;10465;42.686;23.364;2022-08-25T15:13:57;17.23;;;3.97;;
20611;SDS011;10465;42.686;23.364;2022-08-25T15:16:30;13.65;;;3.53;;
20611;SDS011;10465;42.686;23.364;2022-08-25T15:19:13;16.95;;;4.40;;
20611;SDS011;10465;42.686;23.364;2022-08-25T15:21:41;18.48;;;4.30;;
20611;SDS011;10465;42.686;23.364;2022-08-25T15:24:08;17.73;;;4.68;;
20611;SDS011;10465;42.686;23.364;2022-08-25T15:26:36;18.50;;;4.47;;
20611;SDS011;10465;42.686;23.364;2022-08-25T15:29:04;19.48;;;4.55;;
20611;SDS011;10465;42.686;23.364;2022-08-25T15:31:30;18.40;;;4.13;;
20611;SDS011;10465;42.686;23.364;2022-08-25T15:33:56;26.52;;;4.55;;
20611;SDS011;10465;42.686;23.364;2022-08-25T15:36:23;14.32;;;5.30;;
20611;SDS011;10465;42.686;23.364;2022-08-25T15:38:51;15.30;;;6.13;;
20611;SDS011;10465;42.686;23.364;2022-08-25T15:41:17;18.10;;;4.75;;
20611;SDS011;10465;42.686;23.364;2022-08-25T15:43:43;14.40;;;5.25;;
20611;SDS011;10465;42.686;23.364;2022-08-25T15:46:09;16.60;;;3.72;;
20611;SDS011;10465;42.686;23.364;2022-08-25T15:48:39;11.98;;;4.07;;
20611;SDS011;10465;42.686;23.364;2022-08-25T15:51:05;19.88;;;5.35;;
20611;SDS011;10465;42.686;23.364;2022-08-25T15:53:33;16.98;;;4.20;;
20611;SDS011;10465;42.686;23.364;2022-08-25T15:55:58;17.63;;;5.30;;
20611;SDS011;10465;42.686;23.364;2022-08-25T15:58:25;18.92;;;4.43;;
20611;SDS011;10465;42.686;23.364;2022-08-25T16:00:51;20.63;;;5.25;;
20611;SDS011;10465;42.686;23.364;2022-08-25T16:03:18;17.02;;;5.70;;
20611;SDS011;10465;42.686;23.364;2022-08-25T16:05:44;22.92;;;6.22;;
20611;SDS011;10465;42.686;23.364;2022-08-25T16:08:10;17.70;;;5.40;;
20611;SDS011;10465;42.686;23.364;2022-08-25T16:10:36;16.38;;;5.30;;
20611;SDS011;10465;42.686;23.364;2022-08-25T16:13:04;16.05;;;4.65;;
20611;SDS011;10465;42.686;23.364;2022-08-25T16:15:30;21.38;;;7.95;;
20611;SDS011;10465;42.686;23.364;2022-08-25T16:17:57;16.08;;;5.88;;
20611;SDS011;10465;42.686;23.364;2022-08-25T16:20:24;21.05;;;8.75;;
20611;SDS011;10465;42.686;23.364;2022-08-25T16:22:50;14.90;;;6.07;;
20611;SDS011;10465;42.686;23.364;2022-08-25T16:25:16;28.08;;;6.75;;
20611;SDS011;10465;42.686;23.364;2022-08-25T16:27:41;17.42;;;6.15;;